Аэропорт: Угольный. Анадырь

ICAO: UHMA

METAR:
2021-07-28 13:00:00
UHMA 281300Z 30004MPS 9999 FEW013 BKN031 BKN043 09/08 Q0991 R01/29//60 NOSIG RMK TDZ R01/30004G05MPS END R01/28003G04MPS QFE739/0986
METAR:
2021-07-28 10:39:00
TAF UHMA 281039Z 2812/2912 32008G13MPS 9999 FEW010 BKN020 TEMPO 2812/2912 28013G19MPS 3100 -SHRA BR SCT004 BKN010CB